sensor_id;sensor_type;location;lat;lon;timestamp;temperature;humidity
6256;DHT22;3161;48.794;9.784;2023-01-29T00:02:17;1.60;99.90
6256;DHT22;3161;48.794;9.784;2023-01-29T00:04:45;1.60;99.90
6256;DHT22;3161;48.794;9.784;2023-01-29T00:07:12;1.60;99.90
6256;DHT22;3161;48.794;9.784;2023-01-29T00:09:40;1.60;99.90
6256;DHT22;3161;48.794;9.784;2023-01-29T00:12:07;1.60;99.90
6256;DHT22;3161;48.794;9.784;2023-01-29T00:14:35;1.60;99.90
6256;DHT22;3161;48.794;9.784;2023-01-29T00:17:02;1.60;99.90
6256;DHT22;3161;48.794;9.784;2023-01-29T00:19:30;1.60;99.90
6256;DHT22;3161;48.794;9.784;2023-01-29T00:21:57;1.60;99.90
6256;DHT22;3161;48.794;9.784;2023-01-29T00:24:25;1.60;99.90
6256;DHT22;3161;48.794;9.784;2023-01-29T00:26:52;1.60;99.90
6256;DHT22;3161;48.794;9.784;2023-01-29T00:29:20;1.60;99.90
6256;DHT22;3161;48.794;9.784;2023-01-29T00:31:48;1.60;99.90
6256;DHT22;3161;48.794;9.784;2023-01-29T00:34:15;1.60;99.90
6256;DHT22;3161;48.794;9.784;2023-01-29T00:36:43;1.60;99.90
6256;DHT22;3161;48.794;9.784;2023-01-29T00:39:11;1.60;99.90
6256;DHT22;3161;48.794;9.784;2023-01-29T00:41:39;1.60;99.90
6256;DHT22;3161;48.794;9.784;2023-01-29T00:44:24;1.50;99.90
6256;DHT22;3161;48.794;9.784;2023-01-29T00:47:09;1.60;99.90
6256;DHT22;3161;48.794;9.784;2023-01-29T00:49:41;1.50;99.90
6256;DHT22;3161;48.794;9.784;2023-01-29T00:52:09;1.50;99.90
6256;DHT22;3161;48.794;9.784;2023-01-29T00:54:53;1.50;99.90
6256;DHT22;3161;48.794;9.784;2023-01-29T00:57:21;1.50;99.90
6256;DHT22;3161;48.794;9.784;2023-01-29T00:59:49;1.50;99.90
6256;DHT22;3161;48.794;9.784;2023-01-29T01:02:16;1.50;99.90
6256;DHT22;3161;48.794;9.784;2023-01-29T01:05:03;1.60;99.90
6256;DHT22;3161;48.794;9.784;2023-01-29T01:07:33;1.60;99.90
6256;DHT22;3161;48.794;9.784;2023-01-29T01:10:00;1.50;99.90
6256;DHT22;3161;48.794;9.784;2023-01-29T01:12:48;1.60;99.90
6256;DHT22;3161;48.794;9.784;2023-01-29T01:15:16;1.50;99.90
6256;DHT22;3161;48.794;9.784;2023-01-29T01:17:44;1.50;99.90
6256;DHT22;3161;48.794;9.784;2023-01-29T01:20:14;1.50;99.90
6256;DHT22;3161;48.794;9.784;2023-01-29T01:22:42;1.50;99.90
6256;DHT22;3161;48.794;9.784;2023-01-29T01:25:09;1.50;99.90
6256;DHT22;3161;48.794;9.784;2023-01-29T01:27:37;1.50;99.90
6256;DHT22;3161;48.794;9.784;2023-01-29T01:30:12;1.50;99.90
6256;DHT22;3161;48.794;9.784;2023-01-29T01:32:41;1.50;99.90
6256;DHT22;3161;48.794;9.784;2023-01-29T01:35:09;1.50;99.90
6256;DHT22;3161;48.794;9.784;2023-01-29T01:37:37;1.50;99.90
6256;DHT22;3161;48.794;9.784;2023-01-29T01:40:13;1.50;99.90
6256;DHT22;3161;48.794;9.784;2023-01-29T01:42:40;1.50;99.90
6256;DHT22;3161;48.794;9.784;2023-01-29T01:45:20;1.50;99.90
6256;DHT22;3161;48.794;9.784;2023-01-29T01:47:50;1.50;99.90
6256;DHT22;3161;48.794;9.784;2023-01-29T01:50:22;1.50;99.90
6256;DHT22;3161;48.794;9.784;2023-01-29T01:52:52;1.50;99.90
6256;DHT22;3161;48.794;9.784;2023-01-29T01:55:22;1.50;99.90
6256;DHT22;3161;48.794;9.784;2023-01-29T01:57:53;1.50;99.90
6256;DHT22;3161;48.794;9.784;2023-01-29T02:00:21;1.50;99.90
6256;DHT22;3161;48.794;9.784;2023-01-29T02:02:50;1.50;99.90
6256;DHT22;3161;48.794;9.784;2023-01-29T02:05:37;1.50;99.90
6256;DHT22;3161;48.794;9.784;2023-01-29T02:08:46;1.50;99.90
6256;DHT22;3161;48.794;9.784;2023-01-29T02:11:27;1.50;99.90
6256;DHT22;3161;48.794;9.784;2023-01-29T02:13:55;1.50;99.90
6256;DHT22;3161;48.794;9.784;2023-01-29T02:16:23;1.50;99.90
6256;DHT22;3161;48.794;9.784;2023-01-29T02:18:50;1.50;99.90
6256;DHT22;3161;48.794;9.784;2023-01-29T02:21:34;1.50;99.90
6256;DHT22;3161;48.794;9.784;2023-01-29T02:32:21;1.50;99.90
6256;DHT22;3161;48.794;9.784;2023-01-29T02:35:02;1.50;99.90
6256;DHT22;3161;48.794;9.784;2023-01-29T02:43:07;1.40;99.90
6256;DHT22;3161;48.794;9.784;2023-01-29T02:45:49;1.40;99.90
6256;DHT22;3161;48.794;9.784;2023-01-29T02:48:23;1.50;99.90
6256;DHT22;3161;48.794;9.784;2023-01-29T02:51:01;1.40;99.90
6256;DHT22;3161;48.794;9.784;2023-01-29T02:53:47;1.40;99.90
6256;DHT22;3161;48.794;9.784;2023-01-29T02:56:23;1.40;99.90
6256;DHT22;3161;48.794;9.784;2023-01-29T02:58:55;1.40;99.90
6256;DHT22;3161;48.794;9.784;2023-01-29T03:01:27;1.40;99.90
6256;DHT22;3161;48.794;9.784;2023-01-29T03:04:02;1.40;99.90
6256;DHT22;3161;48.794;9.784;2023-01-29T03:06:31;1.40;99.90
6256;DHT22;3161;48.794;9.784;2023-01-29T03:09:04;1.40;99.90
6256;DHT22;3161;48.794;9.784;2023-01-29T03:11:39;1.40;99.90
6256;DHT22;3161;48.794;9.784;2023-01-29T03:14:06;1.50;99.90
6256;DHT22;3161;48.794;9.784;2023-01-29T03:16:42;1.50;99.90
6256;DHT22;3161;48.794;9.784;2023-01-29T03:19:32;1.40;99.90
6256;DHT22;3161;48.794;9.784;2023-01-29T03:22:03;1.40;99.90
6256;DHT22;3161;48.794;9.784;2023-01-29T03:27:29;1.40;99.90
6256;DHT22;3161;48.794;9.784;2023-01-29T03:30:15;1.40;99.90
6256;DHT22;3161;48.794;9.784;2023-01-29T03:33:05;1.40;99.90
6256;DHT22;3161;48.794;9.784;2023-01-29T03:35:39;1.50;99.90
6256;DHT22;3161;48.794;9.784;2023-01-29T03:38:09;1.40;99.90
6256;DHT22;3161;48.794;9.784;2023-01-29T03:41:04;1.40;99.90
6256;DHT22;3161;48.794;9.784;2023-01-29T03:46:30;1.50;99.90
6256;DHT22;3161;48.794;9.784;2023-01-29T03:49:00;1.50;99.90
6256;DHT22;3161;48.794;9.784;2023-01-29T03:51:34;1.50;99.90
6256;DHT22;3161;48.794;9.784;2023-01-29T03:54:14;1.40;99.90
6256;DHT22;3161;48.794;9.784;2023-01-29T03:59:32;1.30;99.90
6256;DHT22;3161;48.794;9.784;2023-01-29T04:02:04;1.40;99.90
6256;DHT22;3161;48.794;9.784;2023-01-29T04:04:35;1.30;99.90
6256;DHT22;3161;48.794;9.784;2023-01-29T04:07:19;1.30;99.90
6256;DHT22;3161;48.794;9.784;2023-01-29T04:10:01;1.30;99.90
6256;DHT22;3161;48.794;9.784;2023-01-29T04:12:32;1.30;99.90
6256;DHT22;3161;48.794;9.784;2023-01-29T04:15:00;1.30;99.90
6256;DHT22;3161;48.794;9.784;2023-01-29T04:17:30;1.20;99.90
6256;DHT22;3161;48.794;9.784;2023-01-29T04:20:01;1.30;99.90
6256;DHT22;3161;48.794;9.784;2023-01-29T04:22:37;1.20;99.90
6256;DHT22;3161;48.794;9.784;2023-01-29T04:25:10;1.30;99.90
6256;DHT22;3161;48.794;9.784;2023-01-29T04:27:58;1.30;99.90
6256;DHT22;3161;48.794;9.784;2023-01-29T04:36:08;1.20;99.90
6256;DHT22;3161;48.794;9.784;2023-01-29T04:41:34;1.10;99.90
6256;DHT22;3161;48.794;9.784;2023-01-29T04:44:17;1.10;99.90
6256;DHT22;3161;48.794;9.784;2023-01-29T04:49:33;1.10;99.90
6256;DHT22;3161;48.794;9.784;2023-01-29T04:52:26;1.10;99.90
6256;DHT22;3161;48.794;9.784;2023-01-29T04:55:04;1.20;99.90
6256;DHT22;3161;48.794;9.784;2023-01-29T04:57:35;1.20;99.90
6256;DHT22;3161;48.794;9.784;2023-01-29T05:02:43;1.20;99.90
6256;DHT22;3161;48.794;9.784;2023-01-29T05:05:13;1.20;99.90
6256;DHT22;3161;48.794;9.784;2023-01-29T05:07:43;1.20;99.90
6256;DHT22;3161;48.794;9.784;2023-01-29T05:10:11;1.20;99.90
6256;DHT22;3161;48.794;9.784;2023-01-29T05:12:40;1.20;99.90
6256;DHT22;3161;48.794;9.784;2023-01-29T05:15:18;1.20;99.90
6256;DHT22;3161;48.794;9.784;2023-01-29T05:17:43;1.30;99.90
6256;DHT22;3161;48.794;9.784;2023-01-29T05:20:11;1.30;99.90
6256;DHT22;3161;48.794;9.784;2023-01-29T05:22:40;1.30;99.90
6256;DHT22;3161;48.794;9.784;2023-01-29T05:25:26;1.30;99.90
6256;DHT22;3161;48.794;9.784;2023-01-29T05:27:54;1.30;99.90
6256;DHT22;3161;48.794;9.784;2023-01-29T05:30:37;1.30;99.90
6256;DHT22;3161;48.794;9.784;2023-01-29T05:33:10;1.30;99.90
6256;DHT22;3161;48.794;9.784;2023-01-29T05:35:35;1.30;99.90
6256;DHT22;3161;48.794;9.784;2023-01-29T05:38:03;1.30;99.90
6256;DHT22;3161;48.794;9.784;2023-01-29T05:40:30;1.40;99.90
6256;DHT22;3161;48.794;9.784;2023-01-29T05:42:59;1.40;99.90
6256;DHT22;3161;48.794;9.784;2023-01-29T05:45:27;1.40;99.90
6256;DHT22;3161;48.794;9.784;2023-01-29T05:47:58;1.40;99.90
6256;DHT22;3161;48.794;9.784;2023-01-29T05:50:26;1.40;99.90
6256;DHT22;3161;48.794;9.784;2023-01-29T05:52:58;1.40;99.90
6256;DHT22;3161;48.794;9.784;2023-01-29T05:55:27;1.40;99.90
6256;DHT22;3161;48.794;9.784;2023-01-29T05:57:55;1.40;99.90
6256;DHT22;3161;48.794;9.784;2023-01-29T06:00:22;1.40;99.90
6256;DHT22;3161;48.794;9.784;2023-01-29T06:02:50;1.40;99.90
6256;DHT22;3161;48.794;9.784;2023-01-29T06:05:17;1.40;99.90
6256;DHT22;3161;48.794;9.784;2023-01-29T06:07:45;1.40;99.90
6256;DHT22;3161;48.794;9.784;2023-01-29T06:10:14;1.40;99.90
6256;DHT22;3161;48.794;9.784;2023-01-29T06:12:43;1.40;99.90
6256;DHT22;3161;48.794;9.784;2023-01-29T06:15:11;1.40;99.90
6256;DHT22;3161;48.794;9.784;2023-01-29T06:17:41;1.50;99.90
6256;DHT22;3161;48.794;9.784;2023-01-29T06:20:10;1.40;99.90
6256;DHT22;3161;48.794;9.784;2023-01-29T06:22:37;1.40;99.90
6256;DHT22;3161;48.794;9.784;2023-01-29T06:25:06;1.30;99.90
6256;DHT22;3161;48.794;9.784;2023-01-29T06:27:33;1.30;99.90
6256;DHT22;3161;48.794;9.784;2023-01-29T06:30:06;1.30;99.90
6256;DHT22;3161;48.794;9.784;2023-01-29T06:32:30;1.30;99.90
6256;DHT22;3161;48.794;9.784;2023-01-29T06:34:58;1.30;99.90
6256;DHT22;3161;48.794;9.784;2023-01-29T06:37:25;1.30;99.90
6256;DHT22;3161;48.794;9.784;2023-01-29T06:39:53;1.40;99.90
6256;DHT22;3161;48.794;9.784;2023-01-29T06:42:20;1.30;99.90
6256;DHT22;3161;48.794;9.784;2023-01-29T06:44:49;1.30;99.90
6256;DHT22;3161;48.794;9.784;2023-01-29T06:47:17;1.30;99.90
6256;DHT22;3161;48.794;9.784;2023-01-29T06:49:44;1.30;99.90
6256;DHT22;3161;48.794;9.784;2023-01-29T06:52:12;1.30;99.90
6256;DHT22;3161;48.794;9.784;2023-01-29T06:54:39;1.30;99.90
6256;DHT22;3161;48.794;9.784;2023-01-29T06:57:07;1.30;99.90
6256;DHT22;3161;48.794;9.784;2023-01-29T06:59:35;1.30;99.90
6256;DHT22;3161;48.794;9.784;2023-01-29T07:02:03;1.30;99.90
6256;DHT22;3161;48.794;9.784;2023-01-29T07:04:30;1.30;99.90
6256;DHT22;3161;48.794;9.784;2023-01-29T07:07:00;1.30;99.90
6256;DHT22;3161;48.794;9.784;2023-01-29T07:09:28;1.30;99.90
6256;DHT22;3161;48.794;9.784;2023-01-29T07:11:55;1.30;99.90
6256;DHT22;3161;48.794;9.784;2023-01-29T07:14:23;1.30;99.90
6256;DHT22;3161;48.794;9.784;2023-01-29T07:16:50;1.30;99.90
6256;DHT22;3161;48.794;9.784;2023-01-29T07:19:18;1.30;99.90
6256;DHT22;3161;48.794;9.784;2023-01-29T07:21:45;1.30;99.90
6256;DHT22;3161;48.794;9.784;2023-01-29T07:24:13;1.30;99.90
6256;DHT22;3161;48.794;9.784;2023-01-29T07:26:42;1.30;99.90
6256;DHT22;3161;48.794;9.784;2023-01-29T07:29:09;1.40;99.90
6256;DHT22;3161;48.794;9.784;2023-01-29T07:31:37;1.50;99.90
6256;DHT22;3161;48.794;9.784;2023-01-29T07:34:04;1.40;99.90
6256;DHT22;3161;48.794;9.784;2023-01-29T07:36:32;1.50;99.90
6256;DHT22;3161;48.794;9.784;2023-01-29T07:38:59;1.50;99.90
6256;DHT22;3161;48.794;9.784;2023-01-29T07:41:27;1.50;99.90
6256;DHT22;3161;48.794;9.784;2023-01-29T07:43:54;1.50;99.90
6256;DHT22;3161;48.794;9.784;2023-01-29T07:46:22;1.50;99.90
6256;DHT22;3161;48.794;9.784;2023-01-29T07:48:49;1.50;99.90
6256;DHT22;3161;48.794;9.784;2023-01-29T07:51:17;1.50;99.90
6256;DHT22;3161;48.794;9.784;2023-01-29T07:53:46;1.50;99.90
6256;DHT22;3161;48.794;9.784;2023-01-29T07:56:14;1.50;99.90
6256;DHT22;3161;48.794;9.784;2023-01-29T07:58:41;1.50;99.90
6256;DHT22;3161;48.794;9.784;2023-01-29T08:01:09;1.50;99.90
6256;DHT22;3161;48.794;9.784;2023-01-29T08:03:36;1.60;99.90
6256;DHT22;3161;48.794;9.784;2023-01-29T08:06:05;1.60;99.90
6256;DHT22;3161;48.794;9.784;2023-01-29T08:08:32;1.60;99.90
6256;DHT22;3161;48.794;9.784;2023-01-29T08:11:01;1.60;99.90
6256;DHT22;3161;48.794;9.784;2023-01-29T08:13:30;1.60;99.90
6256;DHT22;3161;48.794;9.784;2023-01-29T08:16:01;1.60;99.90
6256;DHT22;3161;48.794;9.784;2023-01-29T08:18:29;1.60;99.90
6256;DHT22;3161;48.794;9.784;2023-01-29T08:21:00;1.60;99.90
6256;DHT22;3161;48.794;9.784;2023-01-29T08:23:28;1.70;99.90
6256;DHT22;3161;48.794;9.784;2023-01-29T08:25:55;1.70;99.90
6256;DHT22;3161;48.794;9.784;2023-01-29T08:28:23;1.10;99.90
6256;DHT22;3161;48.794;9.784;2023-01-29T08:30:50;1.70;99.90
6256;DHT22;3161;48.794;9.784;2023-01-29T08:33:18;1.70;99.90
6256;DHT22;3161;48.794;9.784;2023-01-29T08:35:51;1.80;99.90
6256;DHT22;3161;48.794;9.784;2023-01-29T08:38:19;1.80;99.90
6256;DHT22;3161;48.794;9.784;2023-01-29T08:40:46;1.80;99.90
6256;DHT22;3161;48.794;9.784;2023-01-29T08:43:15;1.80;99.90
6256;DHT22;3161;48.794;9.784;2023-01-29T08:45:43;1.80;99.90
6256;DHT22;3161;48.794;9.784;2023-01-29T08:48:11;1.80;99.90
6256;DHT22;3161;48.794;9.784;2023-01-29T08:50:38;1.80;99.90
6256;DHT22;3161;48.794;9.784;2023-01-29T08:53:07;1.80;99.90
6256;DHT22;3161;48.794;9.784;2023-01-29T08:55:36;1.90;99.90
6256;DHT22;3161;48.794;9.784;2023-01-29T08:58:05;1.90;99.90
6256;DHT22;3161;48.794;9.784;2023-01-29T09:00:33;1.90;99.90
6256;DHT22;3161;48.794;9.784;2023-01-29T09:03:01;1.90;99.90
6256;DHT22;3161;48.794;9.784;2023-01-29T09:05:29;2.00;99.90
6256;DHT22;3161;48.794;9.784;2023-01-29T09:07:57;2.00;99.90
6256;DHT22;3161;48.794;9.784;2023-01-29T09:10:25;2.00;99.90
6256;DHT22;3161;48.794;9.784;2023-01-29T09:12:52;2.00;99.90
6256;DHT22;3161;48.794;9.784;2023-01-29T09:15:20;2.00;99.90
6256;DHT22;3161;48.794;9.784;2023-01-29T09:17:48;2.10;99.90
6256;DHT22;3161;48.794;9.784;2023-01-29T09:20:16;2.00;99.90
6256;DHT22;3161;48.794;9.784;2023-01-29T09:22:45;1.90;99.90
6256;DHT22;3161;48.794;9.784;2023-01-29T09:25:13;1.80;99.90
6256;DHT22;3161;48.794;9.784;2023-01-29T09:27:40;1.80;99.90
6256;DHT22;3161;48.794;9.784;2023-01-29T09:30:09;1.90;99.90
6256;DHT22;3161;48.794;9.784;2023-01-29T09:32:37;1.90;99.90
6256;DHT22;3161;48.794;9.784;2023-01-29T09:35:05;2.00;99.90
6256;DHT22;3161;48.794;9.784;2023-01-29T09:37:33;2.00;99.90
6256;DHT22;3161;48.794;9.784;2023-01-29T09:40:00;2.10;99.90
6256;DHT22;3161;48.794;9.784;2023-01-29T09:42:33;2.10;99.90
6256;DHT22;3161;48.794;9.784;2023-01-29T09:47:36;2.10;99.90
6256;DHT22;3161;48.794;9.784;2023-01-29T09:50:12;2.00;99.90
6256;DHT22;3161;48.794;9.784;2023-01-29T09:52:59;2.00;99.90
6256;DHT22;3161;48.794;9.784;2023-01-29T09:58:10;1.90;99.90
6256;DHT22;3161;48.794;9.784;2023-01-29T10:00:53;2.00;99.90
6256;DHT22;3161;48.794;9.784;2023-01-29T10:06:24;2.10;99.90
6256;DHT22;3161;48.794;9.784;2023-01-29T10:09:19;2.00;99.90
6256;DHT22;3161;48.794;9.784;2023-01-29T10:20:42;2.10;99.90
6256;DHT22;3161;48.794;9.784;2023-01-29T10:23:29;2.10;99.90
6256;DHT22;3161;48.794;9.784;2023-01-29T10:25:57;2.30;99.90
6256;DHT22;3161;48.794;9.784;2023-01-29T10:28:45;2.40;99.90
6256;DHT22;3161;48.794;9.784;2023-01-29T10:31:12;2.40;99.90
6256;DHT22;3161;48.794;9.784;2023-01-29T10:33:43;2.50;99.90
6256;DHT22;3161;48.794;9.784;2023-01-29T10:36:20;2.50;99.90
6256;DHT22;3161;48.794;9.784;2023-01-29T10:38:49;2.60;99.90
6256;DHT22;3161;48.794;9.784;2023-01-29T10:41:29;2.60;99.90
6256;DHT22;3161;48.794;9.784;2023-01-29T10:44:07;2.70;99.90
6256;DHT22;3161;48.794;9.784;2023-01-29T11:00:25;3.30;99.90
6256;DHT22;3161;48.794;9.784;2023-01-29T11:02:53;3.30;99.90
6256;DHT22;3161;48.794;9.784;2023-01-29T11:05:27;3.30;99.90
6256;DHT22;3161;48.794;9.784;2023-01-29T11:07:59;3.30;99.90
6256;DHT22;3161;48.794;9.784;2023-01-29T11:10:25;3.10;99.90
6256;DHT22;3161;48.794;9.784;2023-01-29T11:12:53;3.10;99.90
6256;DHT22;3161;48.794;9.784;2023-01-29T11:15:30;3.10;99.90
6256;DHT22;3161;48.794;9.784;2023-01-29T11:18:11;3.10;99.90
6256;DHT22;3161;48.794;9.784;2023-01-29T11:20:43;1.70;99.90
6256;DHT22;3161;48.794;9.784;2023-01-29T11:23:29;3.20;99.90
6256;DHT22;3161;48.794;9.784;2023-01-29T11:25:58;3.20;99.90
6256;DHT22;3161;48.794;9.784;2023-01-29T11:28:40;3.30;99.90
6256;DHT22;3161;48.794;9.784;2023-01-29T11:31:26;3.40;99.90
6256;DHT22;3161;48.794;9.784;2023-01-29T11:34:02;3.50;99.90
6256;DHT22;3161;48.794;9.784;2023-01-29T11:36:35;3.60;99.90
6256;DHT22;3161;48.794;9.784;2023-01-29T11:39:17;3.70;99.90
6256;DHT22;3161;48.794;9.784;2023-01-29T11:41:47;3.80;99.90
6256;DHT22;3161;48.794;9.784;2023-01-29T11:44:17;3.80;99.90
6256;DHT22;3161;48.794;9.784;2023-01-29T11:46:45;3.70;99.90
6256;DHT22;3161;48.794;9.784;2023-01-29T11:49:22;3.60;99.90
6256;DHT22;3161;48.794;9.784;2023-01-29T11:51:54;3.60;99.90
6256;DHT22;3161;48.794;9.784;2023-01-29T11:54:26;3.60;99.90
6256;DHT22;3161;48.794;9.784;2023-01-29T11:56:55;3.50;99.90
6256;DHT22;3161;48.794;9.784;2023-01-29T11:59:44;3.50;99.90
6256;DHT22;3161;48.794;9.784;2023-01-29T12:02:28;3.40;99.90
6256;DHT22;3161;48.794;9.784;2023-01-29T12:05:05;3.40;99.90
6256;DHT22;3161;48.794;9.784;2023-01-29T12:07:34;3.40;99.90
6256;DHT22;3161;48.794;9.784;2023-01-29T12:10:03;3.40;99.90
6256;DHT22;3161;48.794;9.784;2023-01-29T12:12:36;3.40;99.90
6256;DHT22;3161;48.794;9.784;2023-01-29T12:15:17;3.50;99.90
6256;DHT22;3161;48.794;9.784;2023-01-29T12:17:52;3.50;99.90
6256;DHT22;3161;48.794;9.784;2023-01-29T12:20:19;3.30;99.90
6256;DHT22;3161;48.794;9.784;2023-01-29T12:28:29;3.60;99.90
6256;DHT22;3161;48.794;9.784;2023-01-29T12:38:50;4.10;99.90
6256;DHT22;3161;48.794;9.784;2023-01-29T12:41:31;4.30;99.90
6256;DHT22;3161;48.794;9.784;2023-01-29T12:44:12;4.50;99.90
6256;DHT22;3161;48.794;9.784;2023-01-29T12:46:49;4.80;99.90
6256;DHT22;3161;48.794;9.784;2023-01-29T12:49:21;5.20;99.90
6256;DHT22;3161;48.794;9.784;2023-01-29T12:52:01;5.50;99.90
6256;DHT22;3161;48.794;9.784;2023-01-29T12:54:49;5.90;99.90
6256;DHT22;3161;48.794;9.784;2023-01-29T12:57:19;6.10;99.90
6256;DHT22;3161;48.794;9.784;2023-01-29T12:59:52;6.10;99.90
6256;DHT22;3161;48.794;9.784;2023-01-29T13:02:31;6.10;99.90
6256;DHT22;3161;48.794;9.784;2023-01-29T13:05:02;6.00;99.90
6256;DHT22;3161;48.794;9.784;2023-01-29T13:07:35;6.10;99.90
6256;DHT22;3161;48.794;9.784;2023-01-29T13:10:08;6.10;99.90
6256;DHT22;3161;48.794;9.784;2023-01-29T13:12:33;6.30;99.90
6256;DHT22;3161;48.794;9.784;2023-01-29T13:15:05;6.30;99.90
6256;DHT22;3161;48.794;9.784;2023-01-29T13:17:50;6.40;99.90
6256;DHT22;3161;48.794;9.784;2023-01-29T13:20:23;6.20;99.90
6256;DHT22;3161;48.794;9.784;2023-01-29T13:22:53;6.10;99.90
6256;DHT22;3161;48.794;9.784;2023-01-29T13:25:22;5.90;99.90
6256;DHT22;3161;48.794;9.784;2023-01-29T13:27:50;5.80;99.90
6256;DHT22;3161;48.794;9.784;2023-01-29T13:30:31;5.80;99.90
6256;DHT22;3161;48.794;9.784;2023-01-29T13:33:02;5.70;99.90
6256;DHT22;3161;48.794;9.784;2023-01-29T13:35:39;5.70;99.90
6256;DHT22;3161;48.794;9.784;2023-01-29T13:38:29;5.70;99.90
6256;DHT22;3161;48.794;9.784;2023-01-29T13:41:03;5.80;99.90
6256;DHT22;3161;48.794;9.784;2023-01-29T13:43:34;5.70;99.90
6256;DHT22;3161;48.794;9.784;2023-01-29T13:46:07;5.70;99.90
6256;DHT22;3161;48.794;9.784;2023-01-29T13:48:42;5.60;99.90
6256;DHT22;3161;48.794;9.784;2023-01-29T13:51:09;5.60;99.90
6256;DHT22;3161;48.794;9.784;2023-01-29T13:53:40;5.50;99.90
6256;DHT22;3161;48.794;9.784;2023-01-29T13:56:27;5.50;99.90
6256;DHT22;3161;48.794;9.784;2023-01-29T13:58:56;5.60;99.90
6256;DHT22;3161;48.794;9.784;2023-01-29T14:04:26;5.60;99.90
6256;DHT22;3161;48.794;9.784;2023-01-29T14:06:52;5.60;99.90
6256;DHT22;3161;48.794;9.784;2023-01-29T14:17:26;4.90;99.90
6256;DHT22;3161;48.794;9.784;2023-01-29T14:22:32;4.60;99.90
6256;DHT22;3161;48.794;9.784;2023-01-29T14:25:02;4.60;99.90
6256;DHT22;3161;48.794;9.784;2023-01-29T14:27:30;4.50;99.90
6256;DHT22;3161;48.794;9.784;2023-01-29T14:30:01;4.30;99.90
6256;DHT22;3161;48.794;9.784;2023-01-29T14:32:29;4.20;99.90
6256;DHT22;3161;48.794;9.784;2023-01-29T14:34:59;4.10;99.90
6256;DHT22;3161;48.794;9.784;2023-01-29T14:37:40;4.00;99.90
6256;DHT22;3161;48.794;9.784;2023-01-29T14:45:24;3.80;99.90
6256;DHT22;3161;48.794;9.784;2023-01-29T14:48:04;3.70;99.90
6256;DHT22;3161;48.794;9.784;2023-01-29T14:53:18;3.60;99.90
6256;DHT22;3161;48.794;9.784;2023-01-29T14:56:03;3.60;99.90
6256;DHT22;3161;48.794;9.784;2023-01-29T14:58:37;3.60;99.90
6256;DHT22;3161;48.794;9.784;2023-01-29T15:01:29;3.60;99.90
6256;DHT22;3161;48.794;9.784;2023-01-29T15:03:55;3.60;99.90
6256;DHT22;3161;48.794;9.784;2023-01-29T15:06:26;3.50;99.90
6256;DHT22;3161;48.794;9.784;2023-01-29T15:09:11;3.50;99.90
6256;DHT22;3161;48.794;9.784;2023-01-29T15:11:44;3.50;99.90
6256;DHT22;3161;48.794;9.784;2023-01-29T15:17:15;3.60;99.90
6256;DHT22;3161;48.794;9.784;2023-01-29T15:19:45;3.60;99.90
6256;DHT22;3161;48.794;9.784;2023-01-29T15:22:23;3.60;99.90
6256;DHT22;3161;48.794;9.784;2023-01-29T15:25:04;3.60;99.90
6256;DHT22;3161;48.794;9.784;2023-01-29T15:27:33;3.70;99.90
6256;DHT22;3161;48.794;9.784;2023-01-29T15:30:02;3.70;99.90
6256;DHT22;3161;48.794;9.784;2023-01-29T15:32:35;3.70;99.90
6256;DHT22;3161;48.794;9.784;2023-01-29T15:35:29;3.60;99.90
6256;DHT22;3161;48.794;9.784;2023-01-29T15:38:15;3.60;99.90
6256;DHT22;3161;48.794;9.784;2023-01-29T15:45:57;3.40;99.90
6256;DHT22;3161;48.794;9.784;2023-01-29T15:48:32;3.30;99.90
6256;DHT22;3161;48.794;9.784;2023-01-29T15:51:00;3.30;99.90
6256;DHT22;3161;48.794;9.784;2023-01-29T15:53:47;3.20;99.90
6256;DHT22;3161;48.794;9.784;2023-01-29T15:56:11;3.10;99.90
6256;DHT22;3161;48.794;9.784;2023-01-29T15:58:41;3.00;99.90
6256;DHT22;3161;48.794;9.784;2023-01-29T16:01:09;3.00;99.90
6256;DHT22;3161;48.794;9.784;2023-01-29T16:03:37;2.90;99.90
6256;DHT22;3161;48.794;9.784;2023-01-29T16:06:05;2.80;99.90
6256;DHT22;3161;48.794;9.784;2023-01-29T16:08:34;2.70;99.90
6256;DHT22;3161;48.794;9.784;2023-01-29T16:11:04;2.70;99.90
6256;DHT22;3161;48.794;9.784;2023-01-29T16:13:34;2.60;99.90
6256;DHT22;3161;48.794;9.784;2023-01-29T16:16:05;2.50;99.90
6256;DHT22;3161;48.794;9.784;2023-01-29T16:18:38;2.40;99.90
6256;DHT22;3161;48.794;9.784;2023-01-29T16:21:10;2.30;99.90
6256;DHT22;3161;48.794;9.784;2023-01-29T16:23:47;2.20;99.90
6256;DHT22;3161;48.794;9.784;2023-01-29T16:26:23;2.10;99.90
6256;DHT22;3161;48.794;9.784;2023-01-29T16:28:47;2.10;99.90
6256;DHT22;3161;48.794;9.784;2023-01-29T16:31:20;1.90;99.90
6256;DHT22;3161;48.794;9.784;2023-01-29T16:33:49;1.90;99.90
6256;DHT22;3161;48.794;9.784;2023-01-29T16:36:22;1.80;99.90
6256;DHT22;3161;48.794;9.784;2023-01-29T16:38:59;1.70;99.90
6256;DHT22;3161;48.794;9.784;2023-01-29T16:46:46;1.50;99.90
6256;DHT22;3161;48.794;9.784;2023-01-29T16:52:18;1.30;99.90
6256;DHT22;3161;48.794;9.784;2023-01-29T16:54:42;1.30;99.90
6256;DHT22;3161;48.794;9.784;2023-01-29T16:57:20;1.30;99.90
6256;DHT22;3161;48.794;9.784;2023-01-29T16:59:43;1.20;99.90
6256;DHT22;3161;48.794;9.784;2023-01-29T17:02:23;1.10;99.90
6256;DHT22;3161;48.794;9.784;2023-01-29T17:04:41;1.10;99.90
6256;DHT22;3161;48.794;9.784;2023-01-29T17:07:12;1.10;99.90
6256;DHT22;3161;48.794;9.784;2023-01-29T17:09:40;1.00;99.90
6256;DHT22;3161;48.794;9.784;2023-01-29T17:12:14;1.00;99.90
6256;DHT22;3161;48.794;9.784;2023-01-29T17:14:38;1.00;99.90
6256;DHT22;3161;48.794;9.784;2023-01-29T17:17:15;0.90;99.90
6256;DHT22;3161;48.794;9.784;2023-01-29T17:19:43;0.90;99.90
6256;DHT22;3161;48.794;9.784;2023-01-29T17:22:10;0.90;99.90
6256;DHT22;3161;48.794;9.784;2023-01-29T17:24:41;0.80;99.90
6256;DHT22;3161;48.794;9.784;2023-01-29T17:27:20;0.80;99.90
6256;DHT22;3161;48.794;9.784;2023-01-29T17:29:49;0.70;99.90
6256;DHT22;3161;48.794;9.784;2023-01-29T17:32:16;0.70;99.90
6256;DHT22;3161;48.794;9.784;2023-01-29T17:34:44;0.70;99.90
6256;DHT22;3161;48.794;9.784;2023-01-29T17:37:14;0.60;99.90
6256;DHT22;3161;48.794;9.784;2023-01-29T17:39:42;0.60;99.90
6256;DHT22;3161;48.794;9.784;2023-01-29T17:42:12;0.60;99.90
6256;DHT22;3161;48.794;9.784;2023-01-29T17:44:41;0.60;99.90
6256;DHT22;3161;48.794;9.784;2023-01-29T17:47:12;0.60;99.90
6256;DHT22;3161;48.794;9.784;2023-01-29T17:49:41;0.60;99.90
6256;DHT22;3161;48.794;9.784;2023-01-29T17:52:09;0.50;99.90
6256;DHT22;3161;48.794;9.784;2023-01-29T17:54:36;0.50;99.90
6256;DHT22;3161;48.794;9.784;2023-01-29T17:57:04;0.50;99.90
6256;DHT22;3161;48.794;9.784;2023-01-29T17:59:32;0.40;99.90
6256;DHT22;3161;48.794;9.784;2023-01-29T18:02:00;0.40;99.90
6256;DHT22;3161;48.794;9.784;2023-01-29T18:04:28;0.40;99.90
6256;DHT22;3161;48.794;9.784;2023-01-29T18:06:56;0.40;99.90
6256;DHT22;3161;48.794;9.784;2023-01-29T18:09:24;0.40;99.90
6256;DHT22;3161;48.794;9.784;2023-01-29T18:11:51;0.30;99.90
6256;DHT22;3161;48.794;9.784;2023-01-29T18:14:19;0.30;99.90
6256;DHT22;3161;48.794;9.784;2023-01-29T18:16:47;0.30;99.90
6256;DHT22;3161;48.794;9.784;2023-01-29T18:19:23;0.30;99.90
6256;DHT22;3161;48.794;9.784;2023-01-29T18:21:55;0.30;99.90
6256;DHT22;3161;48.794;9.784;2023-01-29T18:24:23;0.30;99.90
6256;DHT22;3161;48.794;9.784;2023-01-29T18:26:52;0.20;99.90
6256;DHT22;3161;48.794;9.784;2023-01-29T18:29:19;0.20;99.90
6256;DHT22;3161;48.794;9.784;2023-01-29T18:31:47;0.20;99.90
6256;DHT22;3161;48.794;9.784;2023-01-29T18:34:15;0.10;99.90
6256;DHT22;3161;48.794;9.784;2023-01-29T18:36:43;0.10;99.90
6256;DHT22;3161;48.794;9.784;2023-01-29T18:39:12;0.00;99.90
6256;DHT22;3161;48.794;9.784;2023-01-29T18:41:40;0.00;99.90
6256;DHT22;3161;48.794;9.784;2023-01-29T18:44:09;0.00;99.90
6256;DHT22;3161;48.794;9.784;2023-01-29T18:46:37;0.00;99.90